sensor_id;sensor_type;location;lat;lon;timestamp;P1;durP1;ratioP1;P2;durP2;ratioP2
48789;SDS011;41718;51.980;5.734;2023-06-04T00:02:11;3.28;;;1.38;;
48789;SDS011;41718;51.980;5.734;2023-06-04T00:07:13;2.85;;;1.13;;
48789;SDS011;41718;51.980;5.734;2023-06-04T00:12:14;5.20;;;1.50;;
48789;SDS011;41718;51.980;5.734;2023-06-04T00:17:16;6.05;;;1.48;;
48789;SDS011;41718;51.980;5.734;2023-06-04T00:22:17;1.52;;;1.33;;
48789;SDS011;41718;51.980;5.734;2023-06-04T00:27:19;4.63;;;1.75;;
48789;SDS011;41718;51.980;5.734;2023-06-04T00:32:20;2.97;;;1.73;;
48789;SDS011;41718;51.980;5.734;2023-06-04T00:37:22;5.70;;;1.48;;
48789;SDS011;41718;51.980;5.734;2023-06-04T00:42:24;1.77;;;1.08;;
48789;SDS011;41718;51.980;5.734;2023-06-04T00:47:25;2.88;;;1.33;;
48789;SDS011;41718;51.980;5.734;2023-06-04T00:52:27;2.08;;;1.52;;
48789;SDS011;41718;51.980;5.734;2023-06-04T00:57:29;2.30;;;1.30;;
48789;SDS011;41718;51.980;5.734;2023-06-04T01:02:30;5.05;;;1.38;;
48789;SDS011;41718;51.980;5.734;2023-06-04T01:07:34;1.40;;;1.20;;
48789;SDS011;41718;51.980;5.734;2023-06-04T01:12:38;8.30;;;1.67;;
48789;SDS011;41718;51.980;5.734;2023-06-04T01:17:42;2.05;;;1.45;;
48789;SDS011;41718;51.980;5.734;2023-06-04T01:27:55;3.63;;;1.58;;
48789;SDS011;41718;51.980;5.734;2023-06-04T01:33:01;2.70;;;1.20;;
48789;SDS011;41718;51.980;5.734;2023-06-04T01:38:04;1.40;;;1.30;;
48789;SDS011;41718;51.980;5.734;2023-06-04T01:43:06;2.33;;;1.48;;
48789;SDS011;41718;51.980;5.734;2023-06-04T01:48:07;2.45;;;1.42;;
48789;SDS011;41718;51.980;5.734;2023-06-04T01:53:09;1.80;;;1.33;;
48789;SDS011;41718;51.980;5.734;2023-06-04T01:58:11;1.98;;;1.30;;
48789;SDS011;41718;51.980;5.734;2023-06-04T02:03:12;4.53;;;1.77;;
48789;SDS011;41718;51.980;5.734;2023-06-04T02:08:16;2.15;;;1.38;;
48789;SDS011;41718;51.980;5.734;2023-06-04T02:13:21;2.05;;;1.42;;
48789;SDS011;41718;51.980;5.734;2023-06-04T02:18:23;3.30;;;1.27;;
48789;SDS011;41718;51.980;5.734;2023-06-04T02:23:26;3.38;;;1.35;;
48789;SDS011;41718;51.980;5.734;2023-06-04T02:28:28;2.45;;;1.60;;
48789;SDS011;41718;51.980;5.734;2023-06-04T02:33:29;1.85;;;1.48;;
48789;SDS011;41718;51.980;5.734;2023-06-04T02:38:31;3.65;;;1.45;;
48789;SDS011;41718;51.980;5.734;2023-06-04T02:43:32;2.15;;;1.30;;
48789;SDS011;41718;51.980;5.734;2023-06-04T02:48:34;1.35;;;1.23;;
48789;SDS011;41718;51.980;5.734;2023-06-04T02:53:36;1.98;;;1.52;;
48789;SDS011;41718;51.980;5.734;2023-06-04T02:58:48;3.63;;;1.70;;
48789;SDS011;41718;51.980;5.734;2023-06-04T03:03:50;2.97;;;1.38;;
48789;SDS011;41718;51.980;5.734;2023-06-04T03:08:52;2.58;;;1.58;;
48789;SDS011;41718;51.980;5.734;2023-06-04T03:13:53;2.25;;;2.05;;
48789;SDS011;41718;51.980;5.734;2023-06-04T03:18:55;1.50;;;1.40;;
48789;SDS011;41718;51.980;5.734;2023-06-04T03:23:57;2.20;;;1.48;;
48789;SDS011;41718;51.980;5.734;2023-06-04T03:28:59;4.07;;;2.50;;
48789;SDS011;41718;51.980;5.734;2023-06-04T03:34:01;2.33;;;1.90;;
48789;SDS011;41718;51.980;5.734;2023-06-04T03:39:02;2.38;;;1.65;;
48789;SDS011;41718;51.980;5.734;2023-06-04T03:44:04;2.40;;;1.50;;
48789;SDS011;41718;51.980;5.734;2023-06-04T03:49:06;2.78;;;1.80;;
48789;SDS011;41718;51.980;5.734;2023-06-04T03:54:07;3.17;;;1.90;;
48789;SDS011;41718;51.980;5.734;2023-06-04T03:59:10;3.72;;;1.65;;
48789;SDS011;41718;51.980;5.734;2023-06-04T04:04:12;2.67;;;1.40;;
48789;SDS011;41718;51.980;5.734;2023-06-04T04:09:16;5.82;;;2.00;;
48789;SDS011;41718;51.980;5.734;2023-06-04T04:14:18;1.70;;;1.33;;
48789;SDS011;41718;51.980;5.734;2023-06-04T04:19:20;3.45;;;1.80;;
48789;SDS011;41718;51.980;5.734;2023-06-04T04:24:25;2.30;;;1.75;;
48789;SDS011;41718;51.980;5.734;2023-06-04T04:29:28;4.13;;;2.58;;
48789;SDS011;41718;51.980;5.734;2023-06-04T04:34:33;3.60;;;2.10;;
48789;SDS011;41718;51.980;5.734;2023-06-04T04:39:35;2.10;;;1.67;;
48789;SDS011;41718;51.980;5.734;2023-06-04T04:44:40;3.90;;;2.05;;
48789;SDS011;41718;51.980;5.734;2023-06-04T04:49:41;5.40;;;2.60;;
48789;SDS011;41718;51.980;5.734;2023-06-04T04:54:47;3.45;;;2.40;;
48789;SDS011;41718;51.980;5.734;2023-06-04T04:59:49;5.88;;;2.47;;
48789;SDS011;41718;51.980;5.734;2023-06-04T05:04:50;4.72;;;1.90;;
48789;SDS011;41718;51.980;5.734;2023-06-04T05:09:52;3.65;;;2.00;;
48789;SDS011;41718;51.980;5.734;2023-06-04T05:14:54;3.83;;;2.42;;
48789;SDS011;41718;51.980;5.734;2023-06-04T05:19:58;4.57;;;2.15;;
48789;SDS011;41718;51.980;5.734;2023-06-04T05:25:13;5.00;;;2.95;;
48789;SDS011;41718;51.980;5.734;2023-06-04T05:30:18;4.55;;;2.10;;
48789;SDS011;41718;51.980;5.734;2023-06-04T05:35:19;6.53;;;2.42;;
48789;SDS011;41718;51.980;5.734;2023-06-04T05:40:22;3.55;;;2.22;;
48789;SDS011;41718;51.980;5.734;2023-06-04T05:45:23;4.15;;;2.38;;
48789;SDS011;41718;51.980;5.734;2023-06-04T05:50:25;3.38;;;2.30;;
48789;SDS011;41718;51.980;5.734;2023-06-04T05:55:27;3.63;;;2.15;;
48789;SDS011;41718;51.980;5.734;2023-06-04T06:00:30;6.72;;;2.38;;
48789;SDS011;41718;51.980;5.734;2023-06-04T06:05:31;6.65;;;2.33;;
48789;SDS011;41718;51.980;5.734;2023-06-04T06:10:33;4.57;;;2.65;;
48789;SDS011;41718;51.980;5.734;2023-06-04T06:15:34;6.78;;;2.25;;
48789;SDS011;41718;51.980;5.734;2023-06-04T06:20:36;3.38;;;1.95;;
48789;SDS011;41718;51.980;5.734;2023-06-04T06:25:37;3.22;;;2.03;;
48789;SDS011;41718;51.980;5.734;2023-06-04T06:30:41;4.20;;;1.98;;
48789;SDS011;41718;51.980;5.734;2023-06-04T06:35:43;2.40;;;1.83;;
48789;SDS011;41718;51.980;5.734;2023-06-04T06:40:47;8.30;;;1.90;;
48789;SDS011;41718;51.980;5.734;2023-06-04T06:45:49;6.55;;;1.85;;
48789;SDS011;41718;51.980;5.734;2023-06-04T06:50:51;1.88;;;1.50;;
48789;SDS011;41718;51.980;5.734;2023-06-04T06:55:52;3.28;;;1.83;;
48789;SDS011;41718;51.980;5.734;2023-06-04T07:00:54;3.15;;;2.03;;
48789;SDS011;41718;51.980;5.734;2023-06-04T07:05:58;3.17;;;1.52;;
48789;SDS011;41718;51.980;5.734;2023-06-04T07:11:00;3.33;;;1.73;;
48789;SDS011;41718;51.980;5.734;2023-06-04T07:16:04;1.95;;;1.10;;
48789;SDS011;41718;51.980;5.734;2023-06-04T07:21:06;3.15;;;1.17;;
48789;SDS011;41718;51.980;5.734;2023-06-04T07:26:07;4.13;;;1.52;;
48789;SDS011;41718;51.980;5.734;2023-06-04T07:31:09;1.58;;;1.17;;
48789;SDS011;41718;51.980;5.734;2023-06-04T07:36:14;3.92;;;1.50;;
48789;SDS011;41718;51.980;5.734;2023-06-04T07:41:17;4.13;;;1.95;;
48789;SDS011;41718;51.980;5.734;2023-06-04T07:46:18;2.25;;;1.42;;
48789;SDS011;41718;51.980;5.734;2023-06-04T07:51:20;3.92;;;1.23;;
48789;SDS011;41718;51.980;5.734;2023-06-04T07:56:22;3.15;;;1.02;;
48789;SDS011;41718;51.980;5.734;2023-06-04T08:01:23;4.18;;;1.80;;
48789;SDS011;41718;51.980;5.734;2023-06-04T08:06:25;2.67;;;1.33;;
48789;SDS011;41718;51.980;5.734;2023-06-04T08:11:27;3.22;;;1.45;;
48789;SDS011;41718;51.980;5.734;2023-06-04T08:16:31;1.90;;;1.42;;
48789;SDS011;41718;51.980;5.734;2023-06-04T08:21:33;3.67;;;1.08;;
48789;SDS011;41718;51.980;5.734;2023-06-04T08:26:35;2.38;;;0.98;;
48789;SDS011;41718;51.980;5.734;2023-06-04T08:31:36;1.88;;;1.10;;
48789;SDS011;41718;51.980;5.734;2023-06-04T08:36:38;2.67;;;1.25;;
48789;SDS011;41718;51.980;5.734;2023-06-04T08:41:43;2.40;;;1.20;;
48789;SDS011;41718;51.980;5.734;2023-06-04T08:46:47;2.30;;;1.15;;
48789;SDS011;41718;51.980;5.734;2023-06-04T08:51:54;1.20;;;0.90;;
48789;SDS011;41718;51.980;5.734;2023-06-04T08:56:57;1.92;;;1.00;;
48789;SDS011;41718;51.980;5.734;2023-06-04T09:01:59;2.25;;;1.10;;
48789;SDS011;41718;51.980;5.734;2023-06-04T09:07:02;3.38;;;1.00;;
48789;SDS011;41718;51.980;5.734;2023-06-04T09:12:05;1.35;;;0.80;;
48789;SDS011;41718;51.980;5.734;2023-06-04T09:17:11;2.90;;;1.10;;
48789;SDS011;41718;51.980;5.734;2023-06-04T09:22:13;1.23;;;0.80;;
48789;SDS011;41718;51.980;5.734;2023-06-04T09:27:18;2.42;;;0.88;;
48789;SDS011;41718;51.980;5.734;2023-06-04T09:32:22;3.55;;;0.82;;
48789;SDS011;41718;51.980;5.734;2023-06-04T09:37:28;2.95;;;1.08;;
48789;SDS011;41718;51.980;5.734;2023-06-04T09:42:30;3.20;;;0.77;;
48789;SDS011;41718;51.980;5.734;2023-06-04T09:47:38;2.40;;;0.85;;
48789;SDS011;41718;51.980;5.734;2023-06-04T09:52:43;1.33;;;0.80;;
48789;SDS011;41718;51.980;5.734;2023-06-04T09:57:50;1.65;;;0.95;;
48789;SDS011;41718;51.980;5.734;2023-06-04T10:03:00;0.80;;;0.63;;
48789;SDS011;41718;51.980;5.734;2023-06-04T10:08:04;1.70;;;0.70;;
48789;SDS011;41718;51.980;5.734;2023-06-04T10:13:09;0.90;;;0.60;;
48789;SDS011;41718;51.980;5.734;2023-06-04T10:18:16;1.67;;;0.82;;
48789;SDS011;41718;51.980;5.734;2023-06-04T10:23:18;1.25;;;0.80;;
48789;SDS011;41718;51.980;5.734;2023-06-04T10:28:23;1.38;;;1.00;;
48789;SDS011;41718;51.980;5.734;2023-06-04T10:33:24;1.70;;;1.00;;
48789;SDS011;41718;51.980;5.734;2023-06-04T10:38:26;1.98;;;1.08;;
48789;SDS011;41718;51.980;5.734;2023-06-04T10:43:31;3.38;;;1.10;;
48789;SDS011;41718;51.980;5.734;2023-06-04T10:48:35;2.28;;;0.80;;
48789;SDS011;41718;51.980;5.734;2023-06-04T10:53:55;1.88;;;0.82;;
48789;SDS011;41718;51.980;5.734;2023-06-04T10:58:58;1.05;;;0.80;;
48789;SDS011;41718;51.980;5.734;2023-06-04T11:04:00;1.57;;;0.93;;
48789;SDS011;41718;51.980;5.734;2023-06-04T11:09:05;1.33;;;1.23;;
48789;SDS011;41718;51.980;5.734;2023-06-04T11:14:07;3.17;;;1.27;;
48789;SDS011;41718;51.980;5.734;2023-06-04T11:19:10;2.47;;;0.93;;
48789;SDS011;41718;51.980;5.734;2023-06-04T11:24:11;1.33;;;0.70;;
48789;SDS011;41718;51.980;5.734;2023-06-04T11:29:14;1.30;;;0.98;;
48789;SDS011;41718;51.980;5.734;2023-06-04T11:34:24;3.10;;;1.05;;
48789;SDS011;41718;51.980;5.734;2023-06-04T11:39:33;3.40;;;1.17;;
48789;SDS011;41718;51.980;5.734;2023-06-04T11:44:36;1.08;;;0.77;;
48789;SDS011;41718;51.980;5.734;2023-06-04T11:49:38;1.65;;;1.23;;
48789;SDS011;41718;51.980;5.734;2023-06-04T11:54:40;1.58;;;0.82;;
48789;SDS011;41718;51.980;5.734;2023-06-04T11:59:42;1.13;;;0.82;;
48789;SDS011;41718;51.980;5.734;2023-06-04T12:04:44;1.60;;;1.08;;
48789;SDS011;41718;51.980;5.734;2023-06-04T12:09:47;1.17;;;0.98;;
48789;SDS011;41718;51.980;5.734;2023-06-04T12:14:58;2.05;;;0.90;;
48789;SDS011;41718;51.980;5.734;2023-06-04T12:20:00;1.65;;;1.13;;
48789;SDS011;41718;51.980;5.734;2023-06-04T12:25:02;1.17;;;0.82;;
48789;SDS011;41718;51.980;5.734;2023-06-04T12:30:05;2.15;;;0.90;;
48789;SDS011;41718;51.980;5.734;2023-06-04T12:35:08;1.60;;;1.00;;
48789;SDS011;41718;51.980;5.734;2023-06-04T12:40:10;4.00;;;1.15;;
48789;SDS011;41718;51.980;5.734;2023-06-04T12:45:12;2.07;;;0.80;;
48789;SDS011;41718;51.980;5.734;2023-06-04T12:50:15;1.48;;;1.25;;
48789;SDS011;41718;51.980;5.734;2023-06-04T12:55:16;1.77;;;0.93;;
48789;SDS011;41718;51.980;5.734;2023-06-04T13:00:18;1.50;;;1.35;;
48789;SDS011;41718;51.980;5.734;2023-06-04T13:05:19;2.45;;;1.50;;
48789;SDS011;41718;51.980;5.734;2023-06-04T13:10:21;2.60;;;1.50;;
48789;SDS011;41718;51.980;5.734;2023-06-04T13:15:24;2.30;;;1.00;;
48789;SDS011;41718;51.980;5.734;2023-06-04T13:20:27;1.90;;;1.40;;
48789;SDS011;41718;51.980;5.734;2023-06-04T13:25:30;1.67;;;1.17;;
48789;SDS011;41718;51.980;5.734;2023-06-04T13:30:37;1.35;;;1.08;;
48789;SDS011;41718;51.980;5.734;2023-06-04T13:35:40;1.60;;;1.10;;
48789;SDS011;41718;51.980;5.734;2023-06-04T13:40:43;1.10;;;1.00;;
48789;SDS011;41718;51.980;5.734;2023-06-04T13:45:46;3.28;;;1.13;;
48789;SDS011;41718;51.980;5.734;2023-06-04T13:50:48;1.25;;;1.15;;
48789;SDS011;41718;51.980;5.734;2023-06-04T13:55:49;2.72;;;1.42;;
48789;SDS011;41718;51.980;5.734;2023-06-04T14:00:58;2.38;;;1.23;;
48789;SDS011;41718;51.980;5.734;2023-06-04T14:06:00;2.25;;;0.95;;
48789;SDS011;41718;51.980;5.734;2023-06-04T14:11:02;3.63;;;1.70;;
48789;SDS011;41718;51.980;5.734;2023-06-04T14:16:04;2.05;;;1.17;;
48789;SDS011;41718;51.980;5.734;2023-06-04T14:21:06;1.83;;;1.20;;
48789;SDS011;41718;51.980;5.734;2023-06-04T14:31:12;2.03;;;1.30;;
48789;SDS011;41718;51.980;5.734;2023-06-04T14:36:16;1.55;;;0.90;;
48789;SDS011;41718;51.980;5.734;2023-06-04T14:41:18;2.83;;;1.58;;
48789;SDS011;41718;51.980;5.734;2023-06-04T14:46:20;9.55;;;1.83;;
48789;SDS011;41718;51.980;5.734;2023-06-04T14:51:22;2.17;;;1.10;;
48789;SDS011;41718;51.980;5.734;2023-06-04T14:56:24;5.20;;;1.73;;
48789;SDS011;41718;51.980;5.734;2023-06-04T15:01:27;5.22;;;1.30;;
48789;SDS011;41718;51.980;5.734;2023-06-04T15:06:28;7.43;;;1.13;;
48789;SDS011;41718;51.980;5.734;2023-06-04T15:11:31;3.10;;;1.20;;
48789;SDS011;41718;51.980;5.734;2023-06-04T15:16:33;2.00;;;1.20;;
48789;SDS011;41718;51.980;5.734;2023-06-04T15:21:35;4.43;;;1.23;;
48789;SDS011;41718;51.980;5.734;2023-06-04T15:26:38;4.13;;;1.40;;
48789;SDS011;41718;51.980;5.734;2023-06-04T15:31:40;1.55;;;1.30;;
48789;SDS011;41718;51.980;5.734;2023-06-04T15:36:41;1.45;;;1.08;;
48789;SDS011;41718;51.980;5.734;2023-06-04T15:41:43;1.77;;;1.30;;
48789;SDS011;41718;51.980;5.734;2023-06-04T15:46:45;3.53;;;1.40;;
48789;SDS011;41718;51.980;5.734;2023-06-04T15:51:46;1.38;;;1.02;;
48789;SDS011;41718;51.980;5.734;2023-06-04T15:56:48;4.35;;;1.85;;
48789;SDS011;41718;51.980;5.734;2023-06-04T16:01:50;1.35;;;1.25;;
48789;SDS011;41718;51.980;5.734;2023-06-04T16:06:52;2.05;;;0.90;;
48789;SDS011;41718;51.980;5.734;2023-06-04T16:11:53;2.20;;;1.77;;
48789;SDS011;41718;51.980;5.734;2023-06-04T16:16:55;1.90;;;1.30;;
48789;SDS011;41718;51.980;5.734;2023-06-04T16:21:57;3.20;;;1.08;;
48789;SDS011;41718;51.980;5.734;2023-06-04T16:26:59;4.30;;;1.15;;
48789;SDS011;41718;51.980;5.734;2023-06-04T16:32:01;2.15;;;1.13;;
48789;SDS011;41718;51.980;5.734;2023-06-04T16:37:02;1.45;;;1.10;;
48789;SDS011;41718;51.980;5.734;2023-06-04T16:42:04;1.30;;;0.85;;
48789;SDS011;41718;51.980;5.734;2023-06-04T16:47:06;1.75;;;1.35;;
48789;SDS011;41718;51.980;5.734;2023-06-04T16:52:07;2.17;;;1.00;;
48789;SDS011;41718;51.980;5.734;2023-06-04T16:57:09;1.40;;;1.15;;
48789;SDS011;41718;51.980;5.734;2023-06-04T17:02:11;3.10;;;1.33;;
48789;SDS011;41718;51.980;5.734;2023-06-04T17:07:14;4.63;;;1.65;;
48789;SDS011;41718;51.980;5.734;2023-06-04T17:12:15;2.45;;;1.65;;
48789;SDS011;41718;51.980;5.734;2023-06-04T17:17:17;2.67;;;1.10;;
48789;SDS011;41718;51.980;5.734;2023-06-04T17:22:18;2.25;;;1.15;;
48789;SDS011;41718;51.980;5.734;2023-06-04T17:27:20;3.83;;;1.35;;
48789;SDS011;41718;51.980;5.734;2023-06-04T17:32:22;3.42;;;1.27;;
48789;SDS011;41718;51.980;5.734;2023-06-04T17:37:24;3.45;;;1.23;;
48789;SDS011;41718;51.980;5.734;2023-06-04T17:42:25;3.53;;;1.58;;
48789;SDS011;41718;51.980;5.734;2023-06-04T17:47:27;3.53;;;1.83;;
48789;SDS011;41718;51.980;5.734;2023-06-04T17:52:29;2.63;;;1.20;;
48789;SDS011;41718;51.980;5.734;2023-06-04T17:57:30;2.88;;;1.73;;
48789;SDS011;41718;51.980;5.734;2023-06-04T18:02:32;2.42;;;1.50;;
48789;SDS011;41718;51.980;5.734;2023-06-04T18:07:33;2.30;;;1.42;;
48789;SDS011;41718;51.980;5.734;2023-06-04T18:12:35;3.00;;;1.17;;
48789;SDS011;41718;51.980;5.734;2023-06-04T18:17:37;4.28;;;1.58;;
48789;SDS011;41718;51.980;5.734;2023-06-04T18:22:39;4.57;;;1.35;;
48789;SDS011;41718;51.980;5.734;2023-06-04T18:27:41;3.78;;;1.48;;
48789;SDS011;41718;51.980;5.734;2023-06-04T18:32:42;3.05;;;1.65;;
48789;SDS011;41718;51.980;5.734;2023-06-04T18:37:48;2.92;;;1.58;;
48789;SDS011;41718;51.980;5.734;2023-06-04T18:42:49;5.38;;;1.42;;
48789;SDS011;41718;51.980;5.734;2023-06-04T18:47:51;4.50;;;1.75;;
48789;SDS011;41718;51.980;5.734;2023-06-04T18:52:54;6.35;;;1.95;;
48789;SDS011;41718;51.980;5.734;2023-06-04T18:57:59;3.53;;;1.85;;
48789;SDS011;41718;51.980;5.734;2023-06-04T19:03:03;4.60;;;1.57;;
48789;SDS011;41718;51.980;5.734;2023-06-04T19:08:05;3.03;;;1.50;;
48789;SDS011;41718;51.980;5.734;2023-06-04T19:13:07;5.43;;;1.63;;
48789;SDS011;41718;51.980;5.734;2023-06-04T19:18:11;2.78;;;1.55;;
48789;SDS011;41718;51.980;5.734;2023-06-04T19:23:13;3.25;;;1.40;;
48789;SDS011;41718;51.980;5.734;2023-06-04T19:28:15;4.15;;;1.65;;
48789;SDS011;41718;51.980;5.734;2023-06-04T19:33:18;2.13;;;1.75;;
48789;SDS011;41718;51.980;5.734;2023-06-04T19:38:24;2.60;;;1.67;;
48789;SDS011;41718;51.980;5.734;2023-06-04T19:43:26;3.00;;;1.67;;
48789;SDS011;41718;51.980;5.734;2023-06-04T19:48:28;3.08;;;1.50;;
48789;SDS011;41718;51.980;5.734;2023-06-04T19:53:30;2.13;;;1.48;;
48789;SDS011;41718;51.980;5.734;2023-06-04T19:58:31;3.17;;;1.60;;
48789;SDS011;41718;51.980;5.734;2023-06-04T20:03:33;6.72;;;2.22;;
48789;SDS011;41718;51.980;5.734;2023-06-04T20:08:36;3.00;;;1.60;;
48789;SDS011;41718;51.980;5.734;2023-06-04T20:13:41;4.10;;;1.83;;
48789;SDS011;41718;51.980;5.734;2023-06-04T20:18:43;5.00;;;2.00;;
48789;SDS011;41718;51.980;5.734;2023-06-04T20:23:45;5.10;;;2.00;;
48789;SDS011;41718;51.980;5.734;2023-06-04T20:28:47;4.32;;;2.20;;
48789;SDS011;41718;51.980;5.734;2023-06-04T20:33:49;3.45;;;1.70;;
48789;SDS011;41718;51.980;5.734;2023-06-04T20:38:58;3.03;;;1.65;;
48789;SDS011;41718;51.980;5.734;2023-06-04T20:44:01;4.28;;;2.33;;
48789;SDS011;41718;51.980;5.734;2023-06-04T20:49:03;5.63;;;2.50;;
48789;SDS011;41718;51.980;5.734;2023-06-04T20:54:05;5.68;;;1.95;;
48789;SDS011;41718;51.980;5.734;2023-06-04T20:59:06;5.78;;;2.15;;
48789;SDS011;41718;51.980;5.734;2023-06-04T21:04:08;2.28;;;1.83;;
48789;SDS011;41718;51.980;5.734;2023-06-04T21:09:12;5.45;;;2.78;;
48789;SDS011;41718;51.980;5.734;2023-06-04T21:14:13;3.95;;;1.75;;
48789;SDS011;41718;51.980;5.734;2023-06-04T21:19:15;2.92;;;2.00;;
48789;SDS011;41718;51.980;5.734;2023-06-04T21:24:16;2.78;;;2.13;;
48789;SDS011;41718;51.980;5.734;2023-06-04T21:29:18;4.93;;;2.72;;
48789;SDS011;41718;51.980;5.734;2023-06-04T21:34:19;6.63;;;2.22;;
48789;SDS011;41718;51.980;5.734;2023-06-04T21:39:21;3.67;;;2.65;;
48789;SDS011;41718;51.980;5.734;2023-06-04T21:44:25;7.30;;;2.20;;
48789;SDS011;41718;51.980;5.734;2023-06-04T21:49:27;5.47;;;2.30;;
48789;SDS011;41718;51.980;5.734;2023-06-04T21:54:31;3.55;;;2.40;;
48789;SDS011;41718;51.980;5.734;2023-06-04T21:59:33;5.15;;;1.90;;
48789;SDS011;41718;51.980;5.734;2023-06-04T22:04:39;4.32;;;1.83;;
48789;SDS011;41718;51.980;5.734;2023-06-04T22:09:40;3.08;;;2.15;;
48789;SDS011;41718;51.980;5.734;2023-06-04T22:14:42;4.90;;;2.42;;
48789;SDS011;41718;51.980;5.734;2023-06-04T22:19:55;5.05;;;2.55;;
48789;SDS011;41718;51.980;5.734;2023-06-04T22:24:58;2.88;;;1.85;;
48789;SDS011;41718;51.980;5.734;2023-06-04T22:29:59;4.30;;;2.15;;
48789;SDS011;41718;51.980;5.734;2023-06-04T22:35:01;4.22;;;2.25;;
48789;SDS011;41718;51.980;5.734;2023-06-04T22:40:02;5.50;;;2.95;;
48789;SDS011;41718;51.980;5.734;2023-06-04T22:45:04;8.25;;;2.30;;
48789;SDS011;41718;51.980;5.734;2023-06-04T22:50:07;5.13;;;2.58;;
48789;SDS011;41718;51.980;5.734;2023-06-04T22:55:09;3.58;;;2.17;;
48789;SDS011;41718;51.980;5.734;2023-06-04T23:00:12;6.65;;;2.72;;
48789;SDS011;41718;51.980;5.734;2023-06-04T23:05:13;4.82;;;2.30;;
48789;SDS011;41718;51.980;5.734;2023-06-04T23:10:15;6.18;;;2.47;;
48789;SDS011;41718;51.980;5.734;2023-06-04T23:15:20;5.78;;;2.38;;
48789;SDS011;41718;51.980;5.734;2023-06-04T23:20:23;6.55;;;2.55;;
48789;SDS011;41718;51.980;5.734;2023-06-04T23:25:24;6.05;;;2.58;;
48789;SDS011;41718;51.980;5.734;2023-06-04T23:30:26;5.53;;;3.75;;
48789;SDS011;41718;51.980;5.734;2023-06-04T23:35:27;4.00;;;2.95;;
48789;SDS011;41718;51.980;5.734;2023-06-04T23:40:29;3.85;;;2.70;;
48789;SDS011;41718;51.980;5.734;2023-06-04T23:45:31;6.32;;;3.20;;
48789;SDS011;41718;51.980;5.734;2023-06-04T23:50:32;5.38;;;2.70;;
48789;SDS011;41718;51.980;5.734;2023-06-04T23:55:34;6.55;;;3.25;;
